Terminal Aerodrome Forecast
Issued by NWS Sterling, VA

Current Version | Previous Version | Graphics & Text | Print | Product List | Glossary On
Versions: 1 2 3 4 5 6 7 8 9 10 11 12 13 14 15 16 17 18 19 20 21 22 23 24 25 26 27 28
000
FTUS41 KLWX 170500
TAFDCA
TAF
KDCA 170529Z 1706/1806 05006KT P6SM SKC
     FM171500 10011KT P6SM FEW035
     FM171800 08009KT P6SM BKN035
     FM180200 11009KT P6SM BKN025=

USA.gov is the U.S. government's official web portal to all federal, state and local government web resources and services.